sensor_id;sensor_type;location;lat;lon;timestamp;temperature;humidity
12948;DHT22;6539;49.476;8.484;2023-11-21T00:00:44;9.10;99.90
12948;DHT22;6539;49.476;8.484;2023-11-21T00:03:33;9.10;99.90
12948;DHT22;6539;49.476;8.484;2023-11-21T00:06:19;9.10;99.90
12948;DHT22;6539;49.476;8.484;2023-11-21T00:09:09;9.20;99.90
12948;DHT22;6539;49.476;8.484;2023-11-21T00:11:57;9.20;99.90
12948;DHT22;6539;49.476;8.484;2023-11-21T00:14:44;9.20;99.90
12948;DHT22;6539;49.476;8.484;2023-11-21T00:17:31;9.20;99.90
12948;DHT22;6539;49.476;8.484;2023-11-21T00:20:20;9.20;99.90
12948;DHT22;6539;49.476;8.484;2023-11-21T00:23:06;9.30;99.90
12948;DHT22;6539;49.476;8.484;2023-11-21T00:25:55;9.20;99.90
12948;DHT22;6539;49.476;8.484;2023-11-21T00:28:44;9.20;99.90
12948;DHT22;6539;49.476;8.484;2023-11-21T00:31:31;9.30;99.90
12948;DHT22;6539;49.476;8.484;2023-11-21T00:34:17;9.30;99.90
12948;DHT22;6539;49.476;8.484;2023-11-21T00:37:03;9.30;99.90
12948;DHT22;6539;49.476;8.484;2023-11-21T00:39:52;9.30;99.90
12948;DHT22;6539;49.476;8.484;2023-11-21T00:42:38;9.30;99.90
12948;DHT22;6539;49.476;8.484;2023-11-21T00:45:27;9.30;99.90
12948;DHT22;6539;49.476;8.484;2023-11-21T00:48:13;9.40;99.90
12948;DHT22;6539;49.476;8.484;2023-11-21T00:50:59;9.30;99.90
12948;DHT22;6539;49.476;8.484;2023-11-21T00:53:48;9.30;99.90
12948;DHT22;6539;49.476;8.484;2023-11-21T00:56:34;9.40;99.90
12948;DHT22;6539;49.476;8.484;2023-11-21T00:59:21;9.40;99.90
12948;DHT22;6539;49.476;8.484;2023-11-21T01:02:08;9.40;99.90
12948;DHT22;6539;49.476;8.484;2023-11-21T01:04:56;9.40;99.90
12948;DHT22;6539;49.476;8.484;2023-11-21T01:07:45;9.30;99.90
12948;DHT22;6539;49.476;8.484;2023-11-21T01:10:31;9.40;99.90
12948;DHT22;6539;49.476;8.484;2023-11-21T01:13:17;9.30;99.90
12948;DHT22;6539;49.476;8.484;2023-11-21T01:16:04;9.40;99.90
12948;DHT22;6539;49.476;8.484;2023-11-21T01:18:52;9.30;99.90
12948;DHT22;6539;49.476;8.484;2023-11-21T01:21:41;9.40;99.90
12948;DHT22;6539;49.476;8.484;2023-11-21T01:24:29;9.30;99.90
12948;DHT22;6539;49.476;8.484;2023-11-21T01:27:15;9.40;99.90
12948;DHT22;6539;49.476;8.484;2023-11-21T01:30:04;9.40;99.90
12948;DHT22;6539;49.476;8.484;2023-11-21T01:32:55;9.40;99.90
12948;DHT22;6539;49.476;8.484;2023-11-21T01:35:42;9.40;99.90
12948;DHT22;6539;49.476;8.484;2023-11-21T01:38:28;9.50;99.90
12948;DHT22;6539;49.476;8.484;2023-11-21T01:41:15;9.50;99.90
12948;DHT22;6539;49.476;8.484;2023-11-21T01:44:01;9.50;99.90
12948;DHT22;6539;49.476;8.484;2023-11-21T01:46:47;9.50;99.90
12948;DHT22;6539;49.476;8.484;2023-11-21T01:49:36;9.50;99.90
12948;DHT22;6539;49.476;8.484;2023-11-21T01:52:26;9.40;99.90
12948;DHT22;6539;49.476;8.484;2023-11-21T01:55:15;9.50;99.90
12948;DHT22;6539;49.476;8.484;2023-11-21T01:58:05;9.50;99.90
12948;DHT22;6539;49.476;8.484;2023-11-21T02:00:53;9.50;99.90
12948;DHT22;6539;49.476;8.484;2023-11-21T02:03:41;9.50;99.90
12948;DHT22;6539;49.476;8.484;2023-11-21T02:06:32;9.50;99.90
12948;DHT22;6539;49.476;8.484;2023-11-21T02:09:25;9.50;99.90
12948;DHT22;6539;49.476;8.484;2023-11-21T02:12:15;9.50;99.90
12948;DHT22;6539;49.476;8.484;2023-11-21T02:15:03;9.60;99.90
12948;DHT22;6539;49.476;8.484;2023-11-21T02:17:55;9.50;99.90
12948;DHT22;6539;49.476;8.484;2023-11-21T02:20:44;9.50;99.90
12948;DHT22;6539;49.476;8.484;2023-11-21T02:23:30;9.50;99.90
12948;DHT22;6539;49.476;8.484;2023-11-21T02:26:16;9.40;99.90
12948;DHT22;6539;49.476;8.484;2023-11-21T02:29:06;9.50;99.90
12948;DHT22;6539;49.476;8.484;2023-11-21T02:31:56;9.50;99.90
12948;DHT22;6539;49.476;8.484;2023-11-21T02:34:42;9.40;99.90
12948;DHT22;6539;49.476;8.484;2023-11-21T02:37:29;9.40;99.90
12948;DHT22;6539;49.476;8.484;2023-11-21T02:40:20;9.40;99.90
12948;DHT22;6539;49.476;8.484;2023-11-21T02:43:06;9.40;99.90
12948;DHT22;6539;49.476;8.484;2023-11-21T02:45:54;9.50;99.90
12948;DHT22;6539;49.476;8.484;2023-11-21T02:48:40;9.40;99.90
12948;DHT22;6539;49.476;8.484;2023-11-21T02:51:32;9.50;99.90
12948;DHT22;6539;49.476;8.484;2023-11-21T02:54:21;9.50;99.90
12948;DHT22;6539;49.476;8.484;2023-11-21T02:57:12;9.50;99.90
12948;DHT22;6539;49.476;8.484;2023-11-21T03:00:01;9.50;99.90
12948;DHT22;6539;49.476;8.484;2023-11-21T03:02:49;9.50;99.90
12948;DHT22;6539;49.476;8.484;2023-11-21T03:05:35;9.50;99.90
12948;DHT22;6539;49.476;8.484;2023-11-21T03:08:22;9.50;99.90
12948;DHT22;6539;49.476;8.484;2023-11-21T03:11:08;9.50;99.90
12948;DHT22;6539;49.476;8.484;2023-11-21T03:14:01;9.50;99.90
12948;DHT22;6539;49.476;8.484;2023-11-21T03:16:48;9.50;99.90
12948;DHT22;6539;49.476;8.484;2023-11-21T03:19:35;9.50;99.90
12948;DHT22;6539;49.476;8.484;2023-11-21T03:22:23;9.50;99.90
12948;DHT22;6539;49.476;8.484;2023-11-21T03:25:09;9.50;99.90
12948;DHT22;6539;49.476;8.484;2023-11-21T03:28:01;9.50;99.90
12948;DHT22;6539;49.476;8.484;2023-11-21T03:30:49;9.50;99.90
12948;DHT22;6539;49.476;8.484;2023-11-21T03:33:38;9.50;99.90
12948;DHT22;6539;49.476;8.484;2023-11-21T03:36:24;9.50;99.90
12948;DHT22;6539;49.476;8.484;2023-11-21T03:39:10;9.50;99.90
12948;DHT22;6539;49.476;8.484;2023-11-21T03:41:59;9.50;99.90
12948;DHT22;6539;49.476;8.484;2023-11-21T03:44:48;9.50;99.90
12948;DHT22;6539;49.476;8.484;2023-11-21T03:47:34;9.50;99.90
12948;DHT22;6539;49.476;8.484;2023-11-21T03:50:20;9.50;99.90
12948;DHT22;6539;49.476;8.484;2023-11-21T03:53:08;9.50;99.90
12948;DHT22;6539;49.476;8.484;2023-11-21T03:56:01;9.50;99.90
12948;DHT22;6539;49.476;8.484;2023-11-21T03:58:51;9.50;99.90
12948;DHT22;6539;49.476;8.484;2023-11-21T04:01:37;9.50;99.90
12948;DHT22;6539;49.476;8.484;2023-11-21T04:04:23;9.40;99.90
12948;DHT22;6539;49.476;8.484;2023-11-21T04:07:09;9.50;99.90
12948;DHT22;6539;49.476;8.484;2023-11-21T04:09:55;9.50;99.90
12948;DHT22;6539;49.476;8.484;2023-11-21T04:12:44;9.50;99.90
12948;DHT22;6539;49.476;8.484;2023-11-21T04:15:31;9.50;99.90
12948;DHT22;6539;49.476;8.484;2023-11-21T04:18:21;9.50;99.90
12948;DHT22;6539;49.476;8.484;2023-11-21T04:21:10;9.50;99.90
12948;DHT22;6539;49.476;8.484;2023-11-21T04:23:58;9.40;99.90
12948;DHT22;6539;49.476;8.484;2023-11-21T04:26:45;9.50;99.90
12948;DHT22;6539;49.476;8.484;2023-11-21T04:29:31;9.50;99.90
12948;DHT22;6539;49.476;8.484;2023-11-21T04:32:17;9.50;99.90
12948;DHT22;6539;49.476;8.484;2023-11-21T04:35:03;9.50;99.90
12948;DHT22;6539;49.476;8.484;2023-11-21T04:37:52;9.50;99.90
12948;DHT22;6539;49.476;8.484;2023-11-21T04:40:43;9.50;99.90
12948;DHT22;6539;49.476;8.484;2023-11-21T04:43:31;9.50;99.90
12948;DHT22;6539;49.476;8.484;2023-11-21T04:46:22;9.60;99.90
12948;DHT22;6539;49.476;8.484;2023-11-21T04:49:10;9.60;99.90
12948;DHT22;6539;49.476;8.484;2023-11-21T04:51:56;9.60;99.90
12948;DHT22;6539;49.476;8.484;2023-11-21T04:54:45;9.60;99.90
12948;DHT22;6539;49.476;8.484;2023-11-21T04:57:31;9.50;99.90
12948;DHT22;6539;49.476;8.484;2023-11-21T05:00:17;9.50;99.90
12948;DHT22;6539;49.476;8.484;2023-11-21T05:03:07;9.70;99.90
12948;DHT22;6539;49.476;8.484;2023-11-21T05:05:55;9.70;99.90
12948;DHT22;6539;49.476;8.484;2023-11-21T05:08:44;9.60;99.90
12948;DHT22;6539;49.476;8.484;2023-11-21T05:11:30;9.60;99.90
12948;DHT22;6539;49.476;8.484;2023-11-21T05:14:18;9.50;99.90
12948;DHT22;6539;49.476;8.484;2023-11-21T05:17:07;9.60;99.90
12948;DHT22;6539;49.476;8.484;2023-11-21T05:19:53;9.60;99.90
12948;DHT22;6539;49.476;8.484;2023-11-21T05:22:42;9.60;99.90
12948;DHT22;6539;49.476;8.484;2023-11-21T05:25:30;9.60;99.90
12948;DHT22;6539;49.476;8.484;2023-11-21T05:28:17;9.30;99.90
12948;DHT22;6539;49.476;8.484;2023-11-21T05:31:04;9.30;99.90
12948;DHT22;6539;49.476;8.484;2023-11-21T05:33:52;9.30;99.90
12948;DHT22;6539;49.476;8.484;2023-11-21T05:36:38;9.30;99.90
12948;DHT22;6539;49.476;8.484;2023-11-21T05:39:24;9.30;99.90
12948;DHT22;6539;49.476;8.484;2023-11-21T05:42:18;9.20;99.90
12948;DHT22;6539;49.476;8.484;2023-11-21T05:45:04;9.50;99.90
12948;DHT22;6539;49.476;8.484;2023-11-21T05:47:59;9.60;99.90
12948;DHT22;6539;49.476;8.484;2023-11-21T05:50:45;9.60;99.90
12948;DHT22;6539;49.476;8.484;2023-11-21T05:53:31;9.60;99.90
12948;DHT22;6539;49.476;8.484;2023-11-21T05:56:18;9.50;99.90
12948;DHT22;6539;49.476;8.484;2023-11-21T05:59:04;9.70;99.90
12948;DHT22;6539;49.476;8.484;2023-11-21T06:01:52;9.70;99.90
12948;DHT22;6539;49.476;8.484;2023-11-21T06:04:44;9.80;99.90
12948;DHT22;6539;49.476;8.484;2023-11-21T06:07:30;9.70;99.90
12948;DHT22;6539;49.476;8.484;2023-11-21T06:10:20;9.60;99.90
12948;DHT22;6539;49.476;8.484;2023-11-21T06:13:10;9.60;99.90
12948;DHT22;6539;49.476;8.484;2023-11-21T06:15:56;9.50;99.90
12948;DHT22;6539;49.476;8.484;2023-11-21T06:18:45;9.50;99.90
12948;DHT22;6539;49.476;8.484;2023-11-21T06:21:33;9.50;99.90
12948;DHT22;6539;49.476;8.484;2023-11-21T06:24:24;9.50;99.90
12948;DHT22;6539;49.476;8.484;2023-11-21T06:27:13;9.50;99.90
12948;DHT22;6539;49.476;8.484;2023-11-21T06:30:00;9.60;99.90
12948;DHT22;6539;49.476;8.484;2023-11-21T06:32:46;9.50;99.90
12948;DHT22;6539;49.476;8.484;2023-11-21T06:35:38;9.50;99.90
12948;DHT22;6539;49.476;8.484;2023-11-21T06:38:29;9.50;99.90
12948;DHT22;6539;49.476;8.484;2023-11-21T06:41:18;9.50;99.90
12948;DHT22;6539;49.476;8.484;2023-11-21T06:44:06;9.40;99.90
12948;DHT22;6539;49.476;8.484;2023-11-21T06:46:58;9.50;99.90
12948;DHT22;6539;49.476;8.484;2023-11-21T06:49:44;9.50;99.90
12948;DHT22;6539;49.476;8.484;2023-11-21T06:52:32;9.50;99.90
12948;DHT22;6539;49.476;8.484;2023-11-21T06:55:18;9.60;99.90
12948;DHT22;6539;49.476;8.484;2023-11-21T06:58:05;9.60;99.90
12948;DHT22;6539;49.476;8.484;2023-11-21T07:00:53;9.60;99.90
12948;DHT22;6539;49.476;8.484;2023-11-21T07:03:39;9.60;99.90
12948;DHT22;6539;49.476;8.484;2023-11-21T07:06:28;9.60;99.90
12948;DHT22;6539;49.476;8.484;2023-11-21T07:09:14;9.50;99.90
12948;DHT22;6539;49.476;8.484;2023-11-21T07:12:02;9.50;99.90
12948;DHT22;6539;49.476;8.484;2023-11-21T07:14:49;9.50;99.90
12948;DHT22;6539;49.476;8.484;2023-11-21T07:17:36;9.50;99.90
12948;DHT22;6539;49.476;8.484;2023-11-21T07:20:22;9.40;99.90
12948;DHT22;6539;49.476;8.484;2023-11-21T07:23:13;9.50;99.90
12948;DHT22;6539;49.476;8.484;2023-11-21T07:26:02;9.50;99.90
12948;DHT22;6539;49.476;8.484;2023-11-21T07:28:48;9.50;99.90
12948;DHT22;6539;49.476;8.484;2023-11-21T07:31:37;9.50;99.90
12948;DHT22;6539;49.476;8.484;2023-11-21T07:34:24;9.60;99.90
12948;DHT22;6539;49.476;8.484;2023-11-21T07:37:10;9.60;99.90
12948;DHT22;6539;49.476;8.484;2023-11-21T07:39:56;9.60;99.90
12948;DHT22;6539;49.476;8.484;2023-11-21T07:42:42;9.60;99.90
12948;DHT22;6539;49.476;8.484;2023-11-21T07:45:28;9.70;99.90
12948;DHT22;6539;49.476;8.484;2023-11-21T07:48:17;9.70;99.90
12948;DHT22;6539;49.476;8.484;2023-11-21T07:51:10;9.90;99.90
12948;DHT22;6539;49.476;8.484;2023-11-21T07:53:56;10.00;99.90
12948;DHT22;6539;49.476;8.484;2023-11-21T07:56:42;10.10;99.90
12948;DHT22;6539;49.476;8.484;2023-11-21T07:59:33;10.00;99.90
12948;DHT22;6539;49.476;8.484;2023-11-21T08:02:20;9.90;99.90
12948;DHT22;6539;49.476;8.484;2023-11-21T08:05:09;9.80;99.90
12948;DHT22;6539;49.476;8.484;2023-11-21T08:07:56;9.80;99.90
12948;DHT22;6539;49.476;8.484;2023-11-21T08:10:44;9.70;99.90
12948;DHT22;6539;49.476;8.484;2023-11-21T08:13:33;9.70;99.90
12948;DHT22;6539;49.476;8.484;2023-11-21T08:16:20;9.70;99.90
12948;DHT22;6539;49.476;8.484;2023-11-21T08:19:06;9.70;99.90
12948;DHT22;6539;49.476;8.484;2023-11-21T08:21:54;9.80;99.90
12948;DHT22;6539;49.476;8.484;2023-11-21T08:24:42;9.90;99.90
12948;DHT22;6539;49.476;8.484;2023-11-21T08:27:28;9.90;99.90
12948;DHT22;6539;49.476;8.484;2023-11-21T08:30:17;9.80;99.90
12948;DHT22;6539;49.476;8.484;2023-11-21T08:33:04;9.80;99.90
12948;DHT22;6539;49.476;8.484;2023-11-21T08:35:56;9.70;99.90
12948;DHT22;6539;49.476;8.484;2023-11-21T08:38:47;9.80;99.90
12948;DHT22;6539;49.476;8.484;2023-11-21T08:41:34;9.90;99.90
12948;DHT22;6539;49.476;8.484;2023-11-21T08:44:20;9.80;99.90
12948;DHT22;6539;49.476;8.484;2023-11-21T08:47:07;9.80;99.90
12948;DHT22;6539;49.476;8.484;2023-11-21T08:49:53;9.70;99.90
12948;DHT22;6539;49.476;8.484;2023-11-21T08:52:39;9.70;99.90
12948;DHT22;6539;49.476;8.484;2023-11-21T08:55:26;9.60;99.90
12948;DHT22;6539;49.476;8.484;2023-11-21T08:58:17;9.70;99.90
12948;DHT22;6539;49.476;8.484;2023-11-21T09:01:05;9.70;99.90
12948;DHT22;6539;49.476;8.484;2023-11-21T09:03:53;9.70;99.90
12948;DHT22;6539;49.476;8.484;2023-11-21T09:06:39;9.70;99.90
12948;DHT22;6539;49.476;8.484;2023-11-21T09:09:28;9.70;99.90
12948;DHT22;6539;49.476;8.484;2023-11-21T09:12:17;9.70;99.90
12948;DHT22;6539;49.476;8.484;2023-11-21T09:15:08;9.70;99.90
12948;DHT22;6539;49.476;8.484;2023-11-21T09:17:57;9.70;99.90
12948;DHT22;6539;49.476;8.484;2023-11-21T09:20:45;9.70;99.90
12948;DHT22;6539;49.476;8.484;2023-11-21T09:23:32;9.70;99.90
12948;DHT22;6539;49.476;8.484;2023-11-21T09:26:22;9.70;99.90
12948;DHT22;6539;49.476;8.484;2023-11-21T09:29:08;9.80;99.90
12948;DHT22;6539;49.476;8.484;2023-11-21T09:31:54;9.80;99.90
12948;DHT22;6539;49.476;8.484;2023-11-21T09:34:43;9.80;99.90
12948;DHT22;6539;49.476;8.484;2023-11-21T09:37:30;9.70;99.90
12948;DHT22;6539;49.476;8.484;2023-11-21T09:40:21;9.70;99.90
12948;DHT22;6539;49.476;8.484;2023-11-21T09:43:17;9.80;99.90
12948;DHT22;6539;49.476;8.484;2023-11-21T09:46:08;9.80;99.90
12948;DHT22;6539;49.476;8.484;2023-11-21T09:49:00;9.90;99.90
12948;DHT22;6539;49.476;8.484;2023-11-21T09:51:55;9.80;99.90
12948;DHT22;6539;49.476;8.484;2023-11-21T09:54:46;9.90;99.90
12948;DHT22;6539;49.476;8.484;2023-11-21T09:57:33;9.90;99.90
12948;DHT22;6539;49.476;8.484;2023-11-21T10:00:22;9.90;99.90
12948;DHT22;6539;49.476;8.484;2023-11-21T10:03:13;9.90;99.90
12948;DHT22;6539;49.476;8.484;2023-11-21T10:06:00;9.90;99.90
12948;DHT22;6539;49.476;8.484;2023-11-21T10:08:51;9.90;99.90
12948;DHT22;6539;49.476;8.484;2023-11-21T10:11:44;10.00;99.90
12948;DHT22;6539;49.476;8.484;2023-11-21T10:14:34;10.10;99.90
12948;DHT22;6539;49.476;8.484;2023-11-21T10:17:28;10.10;99.90
12948;DHT22;6539;49.476;8.484;2023-11-21T10:20:24;10.10;99.90
12948;DHT22;6539;49.476;8.484;2023-11-21T10:23:11;10.10;99.90
12948;DHT22;6539;49.476;8.484;2023-11-21T10:26:01;10.20;99.90
12948;DHT22;6539;49.476;8.484;2023-11-21T10:29:01;10.20;99.90
12948;DHT22;6539;49.476;8.484;2023-11-21T10:31:51;10.20;99.90
12948;DHT22;6539;49.476;8.484;2023-11-21T10:34:37;10.30;99.90
12948;DHT22;6539;49.476;8.484;2023-11-21T10:37:23;10.30;99.90
12948;DHT22;6539;49.476;8.484;2023-11-21T10:40:11;10.30;99.90
12948;DHT22;6539;49.476;8.484;2023-11-21T10:43:09;10.30;99.90
12948;DHT22;6539;49.476;8.484;2023-11-21T10:46:00;10.30;99.90
12948;DHT22;6539;49.476;8.484;2023-11-21T10:48:54;10.30;99.90
12948;DHT22;6539;49.476;8.484;2023-11-21T10:51:46;10.20;99.90
12948;DHT22;6539;49.476;8.484;2023-11-21T10:54:37;10.10;99.90
12948;DHT22;6539;49.476;8.484;2023-11-21T10:57:26;10.10;99.90
12948;DHT22;6539;49.476;8.484;2023-11-21T11:00:16;10.00;99.90
12948;DHT22;6539;49.476;8.484;2023-11-21T11:03:07;10.00;99.90
12948;DHT22;6539;49.476;8.484;2023-11-21T11:06:00;9.90;99.90
12948;DHT22;6539;49.476;8.484;2023-11-21T11:08:51;9.90;99.90
12948;DHT22;6539;49.476;8.484;2023-11-21T11:11:38;9.80;99.90
12948;DHT22;6539;49.476;8.484;2023-11-21T11:14:27;9.80;99.90
12948;DHT22;6539;49.476;8.484;2023-11-21T11:17:17;9.90;99.90
12948;DHT22;6539;49.476;8.484;2023-11-21T11:20:09;9.90;99.90
12948;DHT22;6539;49.476;8.484;2023-11-21T11:32:30;10.30;99.90
12948;DHT22;6539;49.476;8.484;2023-11-21T11:38:31;10.50;99.90
12948;DHT22;6539;49.476;8.484;2023-11-21T11:41:30;10.50;99.90
12948;DHT22;6539;49.476;8.484;2023-11-21T11:47:32;10.50;99.90
12948;DHT22;6539;49.476;8.484;2023-11-21T11:50:23;10.40;99.90
12948;DHT22;6539;49.476;8.484;2023-11-21T11:53:15;10.40;99.90
12948;DHT22;6539;49.476;8.484;2023-11-21T11:56:30;10.30;99.90
12948;DHT22;6539;49.476;8.484;2023-11-21T11:59:19;10.30;99.90
12948;DHT22;6539;49.476;8.484;2023-11-21T12:02:05;10.30;99.90
12948;DHT22;6539;49.476;8.484;2023-11-21T12:04:56;10.30;99.90
12948;DHT22;6539;49.476;8.484;2023-11-21T12:07:55;10.50;99.90
12948;DHT22;6539;49.476;8.484;2023-11-21T12:10:43;10.60;99.90
12948;DHT22;6539;49.476;8.484;2023-11-21T12:13:30;10.80;99.90
12948;DHT22;6539;49.476;8.484;2023-11-21T12:16:16;10.80;99.90
12948;DHT22;6539;49.476;8.484;2023-11-21T12:19:04;11.00;99.90
12948;DHT22;6539;49.476;8.484;2023-11-21T12:21:51;11.00;99.90
12948;DHT22;6539;49.476;8.484;2023-11-21T12:24:37;11.00;99.90
12948;DHT22;6539;49.476;8.484;2023-11-21T12:27:27;11.10;99.90
12948;DHT22;6539;49.476;8.484;2023-11-21T12:30:14;11.20;99.90
12948;DHT22;6539;49.476;8.484;2023-11-21T12:33:05;11.50;99.90
12948;DHT22;6539;49.476;8.484;2023-11-21T12:35:54;11.70;99.90
12948;DHT22;6539;49.476;8.484;2023-11-21T12:38:40;11.70;99.90
12948;DHT22;6539;49.476;8.484;2023-11-21T12:41:29;11.80;99.90
12948;DHT22;6539;49.476;8.484;2023-11-21T12:44:16;11.70;99.90
12948;DHT22;6539;49.476;8.484;2023-11-21T12:47:02;11.50;99.90
12948;DHT22;6539;49.476;8.484;2023-11-21T12:49:48;11.50;99.90
12948;DHT22;6539;49.476;8.484;2023-11-21T12:52:35;11.60;99.90
12948;DHT22;6539;49.476;8.484;2023-11-21T12:55:25;11.60;99.90
12948;DHT22;6539;49.476;8.484;2023-11-21T12:58:11;11.50;99.90
12948;DHT22;6539;49.476;8.484;2023-11-21T13:00:59;11.60;99.90
12948;DHT22;6539;49.476;8.484;2023-11-21T13:03:50;11.50;99.90
12948;DHT22;6539;49.476;8.484;2023-11-21T13:06:39;11.40;99.90
12948;DHT22;6539;49.476;8.484;2023-11-21T13:09:26;11.50;99.90
12948;DHT22;6539;49.476;8.484;2023-11-21T13:12:13;11.50;99.90
12948;DHT22;6539;49.476;8.484;2023-11-21T13:15:08;11.50;99.90
12948;DHT22;6539;49.476;8.484;2023-11-21T13:17:57;11.60;99.90
12948;DHT22;6539;49.476;8.484;2023-11-21T13:20:44;11.60;99.90
12948;DHT22;6539;49.476;8.484;2023-11-21T13:23:35;11.60;99.90
12948;DHT22;6539;49.476;8.484;2023-11-21T13:26:24;11.50;99.90
12948;DHT22;6539;49.476;8.484;2023-11-21T13:29:12;11.60;99.90
12948;DHT22;6539;49.476;8.484;2023-11-21T13:32:01;11.60;99.90
12948;DHT22;6539;49.476;8.484;2023-11-21T13:34:54;11.70;99.90
12948;DHT22;6539;49.476;8.484;2023-11-21T13:37:40;11.80;99.90
12948;DHT22;6539;49.476;8.484;2023-11-21T13:40:30;11.80;99.90
12948;DHT22;6539;49.476;8.484;2023-11-21T13:43:21;11.70;99.90
12948;DHT22;6539;49.476;8.484;2023-11-21T13:46:28;11.70;99.90
12948;DHT22;6539;49.476;8.484;2023-11-21T13:49:22;11.80;99.90
12948;DHT22;6539;49.476;8.484;2023-11-21T13:52:08;11.80;99.90
12948;DHT22;6539;49.476;8.484;2023-11-21T13:55:01;11.70;99.90
12948;DHT22;6539;49.476;8.484;2023-11-21T13:57:52;11.60;99.90
12948;DHT22;6539;49.476;8.484;2023-11-21T14:00:40;11.50;99.90
12948;DHT22;6539;49.476;8.484;2023-11-21T14:03:44;11.50;99.90
12948;DHT22;6539;49.476;8.484;2023-11-21T14:06:37;11.50;99.90
12948;DHT22;6539;49.476;8.484;2023-11-21T14:09:33;11.40;99.90
12948;DHT22;6539;49.476;8.484;2023-11-21T14:16:30;11.50;99.90
12948;DHT22;6539;49.476;8.484;2023-11-21T14:19:19;11.50;99.90
12948;DHT22;6539;49.476;8.484;2023-11-21T14:22:10;11.40;99.90
12948;DHT22;6539;49.476;8.484;2023-11-21T14:24:56;11.30;99.90
12948;DHT22;6539;49.476;8.484;2023-11-21T14:27:48;11.20;99.90
12948;DHT22;6539;49.476;8.484;2023-11-21T14:30:34;11.20;99.90
12948;DHT22;6539;49.476;8.484;2023-11-21T14:33:21;11.10;99.90
12948;DHT22;6539;49.476;8.484;2023-11-21T14:36:10;11.10;99.90
12948;DHT22;6539;49.476;8.484;2023-11-21T14:38:59;11.10;99.90
12948;DHT22;6539;49.476;8.484;2023-11-21T14:41:45;11.10;99.90
12948;DHT22;6539;49.476;8.484;2023-11-21T14:44:34;11.10;99.90
12948;DHT22;6539;49.476;8.484;2023-11-21T14:47:24;11.10;99.90
12948;DHT22;6539;49.476;8.484;2023-11-21T14:50:12;11.10;99.90
12948;DHT22;6539;49.476;8.484;2023-11-21T14:53:22;11.20;99.90
12948;DHT22;6539;49.476;8.484;2023-11-21T14:56:28;11.20;99.90
12948;DHT22;6539;49.476;8.484;2023-11-21T14:59:21;11.10;99.90
12948;DHT22;6539;49.476;8.484;2023-11-21T15:02:07;11.10;99.90
12948;DHT22;6539;49.476;8.484;2023-11-21T15:05:06;11.10;99.90
12948;DHT22;6539;49.476;8.484;2023-11-21T15:07:54;11.20;99.90
12948;DHT22;6539;49.476;8.484;2023-11-21T15:10:45;11.10;99.90
12948;DHT22;6539;49.476;8.484;2023-11-21T15:13:39;11.10;99.90
12948;DHT22;6539;49.476;8.484;2023-11-21T15:16:25;11.10;99.90
12948;DHT22;6539;49.476;8.484;2023-11-21T15:19:14;11.10;99.90
12948;DHT22;6539;49.476;8.484;2023-11-21T15:22:06;11.00;99.90
12948;DHT22;6539;49.476;8.484;2023-11-21T15:24:55;11.00;99.90
12948;DHT22;6539;49.476;8.484;2023-11-21T15:27:43;10.90;99.90
12948;DHT22;6539;49.476;8.484;2023-11-21T15:30:29;10.80;99.90
12948;DHT22;6539;49.476;8.484;2023-11-21T15:33:17;10.80;99.90
12948;DHT22;6539;49.476;8.484;2023-11-21T15:36:04;10.80;99.90
12948;DHT22;6539;49.476;8.484;2023-11-21T15:38:51;10.80;99.90
12948;DHT22;6539;49.476;8.484;2023-11-21T15:41:39;10.70;99.90
12948;DHT22;6539;49.476;8.484;2023-11-21T15:44:27;10.70;99.90
12948;DHT22;6539;49.476;8.484;2023-11-21T15:47:14;10.80;99.90
12948;DHT22;6539;49.476;8.484;2023-11-21T15:54:03;10.70;99.90
12948;DHT22;6539;49.476;8.484;2023-11-21T15:56:50;10.70;99.90
12948;DHT22;6539;49.476;8.484;2023-11-21T15:59:40;10.80;99.90
12948;DHT22;6539;49.476;8.484;2023-11-21T16:02:27;10.80;99.90
12948;DHT22;6539;49.476;8.484;2023-11-21T16:05:16;10.80;99.90
12948;DHT22;6539;49.476;8.484;2023-11-21T16:08:03;10.70;99.90
12948;DHT22;6539;49.476;8.484;2023-11-21T16:10:49;10.70;99.90
12948;DHT22;6539;49.476;8.484;2023-11-21T16:13:35;10.60;99.90
12948;DHT22;6539;49.476;8.484;2023-11-21T16:16:26;10.60;99.90
12948;DHT22;6539;49.476;8.484;2023-11-21T16:19:12;10.50;99.90
12948;DHT22;6539;49.476;8.484;2023-11-21T16:22:01;10.50;99.90
12948;DHT22;6539;49.476;8.484;2023-11-21T16:24:47;10.60;99.90
12948;DHT22;6539;49.476;8.484;2023-11-21T16:27:33;10.50;99.90
12948;DHT22;6539;49.476;8.484;2023-11-21T16:30:19;10.50;99.90
12948;DHT22;6539;49.476;8.484;2023-11-21T16:33:09;10.50;99.90
12948;DHT22;6539;49.476;8.484;2023-11-21T16:36:00;10.50;99.90
12948;DHT22;6539;49.476;8.484;2023-11-21T16:38:46;10.50;99.90
12948;DHT22;6539;49.476;8.484;2023-11-21T16:41:38;10.40;99.90
12948;DHT22;6539;49.476;8.484;2023-11-21T16:44:25;10.50;99.90
12948;DHT22;6539;49.476;8.484;2023-11-21T16:47:14;10.50;99.90
12948;DHT22;6539;49.476;8.484;2023-11-21T16:50:02;10.60;99.90
12948;DHT22;6539;49.476;8.484;2023-11-21T16:52:49;10.60;99.90
12948;DHT22;6539;49.476;8.484;2023-11-21T16:55:35;10.60;99.90
12948;DHT22;6539;49.476;8.484;2023-11-21T16:58:21;10.60;99.90
12948;DHT22;6539;49.476;8.484;2023-11-21T17:01:12;10.50;99.90
12948;DHT22;6539;49.476;8.484;2023-11-21T17:04:01;10.50;99.90
12948;DHT22;6539;49.476;8.484;2023-11-21T17:06:48;10.50;99.90
12948;DHT22;6539;49.476;8.484;2023-11-21T17:09:35;10.50;99.90
12948;DHT22;6539;49.476;8.484;2023-11-21T17:12:21;10.50;99.90
12948;DHT22;6539;49.476;8.484;2023-11-21T17:15:11;10.50;99.90
12948;DHT22;6539;49.476;8.484;2023-11-21T17:17:58;10.50;99.90
12948;DHT22;6539;49.476;8.484;2023-11-21T17:20:46;10.40;99.90
12948;DHT22;6539;49.476;8.484;2023-11-21T17:23:35;10.50;99.90
12948;DHT22;6539;49.476;8.484;2023-11-21T17:26:23;10.40;99.90
12948;DHT22;6539;49.476;8.484;2023-11-21T17:29:10;10.40;99.90
12948;DHT22;6539;49.476;8.484;2023-11-21T17:31:59;10.40;99.90
12948;DHT22;6539;49.476;8.484;2023-11-21T17:34:47;10.40;99.90
12948;DHT22;6539;49.476;8.484;2023-11-21T17:37:36;10.40;99.90
12948;DHT22;6539;49.476;8.484;2023-11-21T17:40:22;10.40;99.90
12948;DHT22;6539;49.476;8.484;2023-11-21T17:43:11;10.40;99.90
12948;DHT22;6539;49.476;8.484;2023-11-21T17:46:01;10.50;99.90
12948;DHT22;6539;49.476;8.484;2023-11-21T17:48:49;10.40;99.90
12948;DHT22;6539;49.476;8.484;2023-11-21T17:51:41;10.30;99.90
12948;DHT22;6539;49.476;8.484;2023-11-21T17:54:27;10.30;99.90
12948;DHT22;6539;49.476;8.484;2023-11-21T17:57:13;10.30;99.90
12948;DHT22;6539;49.476;8.484;2023-11-21T17:59:59;10.30;99.90
12948;DHT22;6539;49.476;8.484;2023-11-21T18:02:45;10.20;99.90
12948;DHT22;6539;49.476;8.484;2023-11-21T18:05:33;10.20;99.90
12948;DHT22;6539;49.476;8.484;2023-11-21T18:08:19;10.20;99.90
12948;DHT22;6539;49.476;8.484;2023-11-21T18:11:06;10.10;99.90
12948;DHT22;6539;49.476;8.484;2023-11-21T18:13:55;10.10;99.90
12948;DHT22;6539;49.476;8.484;2023-11-21T18:16:41;10.10;99.90
12948;DHT22;6539;49.476;8.484;2023-11-21T18:19:35;10.10;99.90
12948;DHT22;6539;49.476;8.484;2023-11-21T18:22:21;10.00;99.90
12948;DHT22;6539;49.476;8.484;2023-11-21T18:25:10;9.90;99.90
12948;DHT22;6539;49.476;8.484;2023-11-21T18:27:56;9.80;99.90
12948;DHT22;6539;49.476;8.484;2023-11-21T18:30:45;9.80;99.90
12948;DHT22;6539;49.476;8.484;2023-11-21T18:33:34;9.80;99.90
12948;DHT22;6539;49.476;8.484;2023-11-21T18:36:20;9.80;99.90